createdAt,value
2022-08-17T00:02:26.354Z,98546.59
2022-08-17T00:04:54.336Z,98547.63
2022-08-17T00:07:21.531Z,98546.63
2022-08-17T00:09:48.473Z,98541.28
2022-08-17T00:12:41.309Z,98542.94
2022-08-17T00:15:02.408Z,98537.59
2022-08-17T00:17:29.525Z,98534.75
2022-08-17T00:19:56.614Z,98533.09
2022-08-17T00:22:32.500Z,98540.25
2022-08-17T00:25:10.056Z,98531.06
2022-08-17T00:27:37.207Z,98539.66
2022-08-17T00:30:06.528Z,98547.63
2022-08-17T00:33:14.308Z,98550.09
2022-08-17T00:35:39.666Z,98543.31
2022-08-17T00:38:10.044Z,98541.28
2022-08-17T00:40:45.847Z,98542.53
2022-08-17T00:43:40.198Z,98533.09
2022-08-17T00:46:16.109Z,98535.94
2022-08-17T00:48:44.362Z,98535.75
2022-08-17T00:51:44.533Z,98536.34
2022-08-17T00:54:34.003Z,98525.94
2022-08-17T00:57:16.689Z,98527.16
2022-08-17T00:59:51.136Z,98525.50
2022-08-17T01:02:40.375Z,98528.56
2022-08-17T01:05:16.024Z,98518.97
2022-08-17T01:07:47.219Z,98527.38
2022-08-17T01:10:57.462Z,98525.53
2022-08-17T01:13:05.114Z,98529.81
2022-08-17T01:15:35.887Z,98537.38
2022-08-17T01:18:04.596Z,98528.19
2022-08-17T01:20:41.906Z,98535.13
2022-08-17T01:23:16.489Z,98524.91
2022-08-17T01:25:53.533Z,98529.41
2022-08-17T01:28:53.138Z,98535.31
2022-08-17T01:31:09.674Z,98531.00
2022-08-17T01:33:36.804Z,98538.41
2022-08-17T01:36:07.250Z,98539.19
2022-08-17T01:38:35.700Z,98537.56
2022-08-17T01:41:06.537Z,98546.94
2022-08-17T01:43:40.420Z,98539.59
2022-08-17T01:46:07.409Z,98544.91
2022-08-17T01:48:36.107Z,98543.00
2022-08-17T01:51:03.192Z,98538.31
2022-08-17T01:53:35.964Z,98532.13
2022-08-17T01:56:07.443Z,98534.22
2022-08-17T01:58:35.231Z,98532.56
2022-08-17T02:01:03.437Z,98538.03
2022-08-17T02:03:31.291Z,98540.09
2022-08-17T02:05:58.330Z,98540.47
2022-08-17T02:08:38.794Z,98534.16
2022-08-17T02:11:14.893Z,98536.41
2022-08-17T02:13:42.183Z,98536.38
2022-08-17T02:16:09.107Z,98543.28
2022-08-17T02:18:36.169Z,98539.59
2022-08-17T02:21:03.180Z,98532.03
2022-08-17T02:23:33.303Z,98536.97
2022-08-17T02:26:00.823Z,98534.50
2022-08-17T02:28:29.023Z,98541.09
2022-08-17T02:31:00.939Z,98541.50
2022-08-17T02:33:41.593Z,98535.91
2022-08-17T02:36:11.718Z,98531.03
2022-08-17T02:38:39.627Z,98535.69
2022-08-17T02:41:06.793Z,98535.50
2022-08-17T02:43:33.924Z,98534.22
2022-08-17T02:46:00.827Z,98539.72
2022-08-17T02:48:30.521Z,98536.41
2022-08-17T02:50:59.934Z,98546.28
2022-08-17T02:53:27.435Z,98539.75
2022-08-17T02:56:00.638Z,98538.91
2022-08-17T02:58:34.749Z,98528.00
2022-08-17T03:01:05.075Z,98533.94
2022-08-17T03:03:32.508Z,98528.25
2022-08-17T03:05:59.617Z,98535.38
2022-08-17T03:08:26.626Z,98534.53
2022-08-17T03:10:53.713Z,98532.75
2022-08-17T03:13:21.058Z,98525.13
2022-08-17T03:15:48.849Z,98534.53
2022-08-17T03:18:25.618Z,98527.41
2022-08-17T03:20:59.666Z,98526.28
2022-08-17T03:23:27.333Z,98528.56
2022-08-17T03:25:54.846Z,98523.69
2022-08-17T03:28:23.234Z,98521.63
2022-08-17T03:30:51.609Z,98524.88
2022-08-17T03:33:19.540Z,98519.97
2022-08-17T03:35:47.017Z,98523.19
2022-08-17T03:38:15.211Z,98521.81
2022-08-17T03:40:56.569Z,98521.81
2022-08-17T03:43:28.047Z,98520.34
2022-08-17T03:46:27.900Z,98519.59
2022-08-17T03:49:19.175Z,98523.06
2022-08-17T03:52:04.632Z,98526.03
2022-08-17T03:54:50.186Z,98523.69
2022-08-17T03:57:17.688Z,98526.13
2022-08-17T03:59:45.119Z,98532.88
2022-08-17T04:02:16.687Z,98534.63
2022-08-17T04:04:43.602Z,98531.19
2022-08-17T04:07:10.369Z,98531.69
2022-08-17T04:09:37.334Z,98538.41
2022-08-17T04:12:05.219Z,98541.59
2022-08-17T04:14:39.256Z,98541.19
2022-08-17T04:17:20.395Z,98536.50
2022-08-17T04:19:47.576Z,98541.59
2022-08-17T04:22:30.601Z,98537.03
2022-08-17T04:24:59.199Z,98538.97
2022-08-17T04:27:26.229Z,98543.84
2022-08-17T04:29:54.557Z,98553.50
2022-08-17T04:32:58.407Z,98558.22
2022-08-17T04:35:09.316Z,98567.84
2022-08-17T04:37:36.418Z,98566.06
2022-08-17T04:40:22.432Z,98570.59
2022-08-17T04:43:07.685Z,98570.25
2022-08-17T04:45:35.157Z,98573.00
2022-08-17T04:48:02.871Z,98563.66
2022-08-17T04:50:29.967Z,98572.75
2022-08-17T04:52:57.231Z,98575.78
2022-08-17T04:55:24.517Z,98573.50
2022-08-17T04:57:51.456Z,98572.38
2022-08-17T05:00:21.699Z,98571.94
2022-08-17T05:02:51.055Z,98570.03
2022-08-17T05:05:23.266Z,98574.78
2022-08-17T05:07:57.772Z,98576.91
2022-08-17T05:10:26.192Z,98577.59
2022-08-17T05:13:07.419Z,98579.31
2022-08-17T05:15:36.163Z,98573.22
2022-08-17T05:18:04.043Z,98579.41
2022-08-17T05:20:31.355Z,98580.53
2022-08-17T05:23:01.247Z,98585.69
2022-08-17T05:25:31.645Z,98578.38
2022-08-17T05:28:02.182Z,98580.91
2022-08-17T05:30:29.342Z,98590.56
2022-08-17T05:32:57.030Z,98581.44
2022-08-17T05:35:24.812Z,98583.09
2022-08-17T05:37:52.207Z,98583.53
2022-08-17T05:40:21.603Z,98589.03
2022-08-17T05:42:49.662Z,98586.34
2022-08-17T05:45:55.957Z,98583.34
2022-08-17T05:48:08.204Z,98581.75
2022-08-17T05:50:44.899Z,98582.41
2022-08-17T05:53:45.650Z,98587.50
2022-08-17T05:56:29.753Z,98572.56
2022-08-17T05:59:24.902Z,98592.16
2022-08-17T06:02:32.541Z,98586.31
2022-08-17T06:05:52.924Z,98591.63
2022-08-17T06:08:43.975Z,98595.16
2022-08-17T06:11:29.046Z,98592.47
2022-08-17T06:14:16.402Z,98595.81
2022-08-17T06:16:49.141Z,98592.59
2022-08-17T06:19:20.329Z,98581.16
2022-08-17T06:21:50.086Z,98587.31
2022-08-17T06:24:52.002Z,98590.59
2022-08-17T06:27:21.614Z,98594.91
2022-08-17T06:30:12.341Z,98588.34
2022-08-17T06:32:42.726Z,98580.41
2022-08-17T06:35:20.139Z,98580.41
2022-08-17T06:37:58.357Z,98581.41
2022-08-17T06:40:46.053Z,98582.22
2022-08-17T06:43:58.323Z,98575.44
2022-08-17T06:46:50.850Z,98574.38
2022-08-17T06:49:29.070Z,98582.56
2022-08-17T06:52:02.731Z,98584.38
2022-08-17T06:54:59.961Z,98579.19
2022-08-17T06:57:29.900Z,98588.41
2022-08-17T07:00:02.378Z,98581.25
2022-08-17T07:02:58.150Z,98584.06
2022-08-17T07:05:31.488Z,98573.28
2022-08-17T07:08:03.773Z,98577.69
2022-08-17T07:10:57.157Z,98584.53
2022-08-17T07:13:38.737Z,98588.38
2022-08-17T07:16:17.107Z,98583.91
2022-08-17T07:18:44.480Z,98588.50
2022-08-17T07:21:26.956Z,98591.84
2022-08-17T07:24:29.621Z,98593.72
2022-08-17T07:27:22.232Z,98581.13
2022-08-17T07:29:56.859Z,98582.50
2022-08-17T07:32:45.365Z,98581.97
2022-08-17T07:35:44.072Z,98580.91
2022-08-17T07:38:25.165Z,98577.50
2022-08-17T07:41:11.019Z,98582.44
2022-08-17T07:43:56.782Z,98590.81
2022-08-17T07:46:52.482Z,98587.47
2022-08-17T07:49:39.408Z,98583.72
2022-08-17T07:52:50.770Z,98590.09
2022-08-17T07:55:31.633Z,98587.94
2022-08-17T07:58:00.492Z,98593.16
2022-08-17T08:00:31.982Z,98590.75
2022-08-17T08:03:26.250Z,98597.38
2022-08-17T08:05:57.838Z,98594.00
2022-08-17T08:08:55.172Z,98589.56
2022-08-17T08:11:36.999Z,98595.94
2022-08-17T08:14:28.391Z,98583.06
2022-08-17T08:16:59.568Z,98588.28
2022-08-17T08:19:28.246Z,98583.78
2022-08-17T08:22:16.107Z,98570.16
2022-08-17T08:25:24.644Z,98579.41
2022-08-17T08:28:14.289Z,98577.53
2022-08-17T08:30:47.289Z,98579.81
2022-08-17T08:33:27.251Z,98578.16
2022-08-17T08:35:59.399Z,98575.78
2022-08-17T08:38:42.838Z,98584.56
2022-08-17T08:41:28.436Z,98582.94
2022-08-17T08:45:00.585Z,98572.78
2022-08-17T08:48:22.986Z,98575.56
2022-08-17T08:51:11.903Z,98573.91
2022-08-17T08:53:52.393Z,98577.84
2022-08-17T08:56:39.252Z,98572.53
2022-08-17T08:59:10.618Z,98584.88
2022-08-17T09:02:00.856Z,98581.69
2022-08-17T09:05:09.984Z,98584.72
2022-08-17T09:07:56.265Z,98577.88
2022-08-17T09:11:00.818Z,98579.91
2022-08-17T09:14:28.758Z,98581.91
2022-08-17T09:17:13.886Z,98579.00
2022-08-17T09:26:23.372Z,98568.16
2022-08-17T09:31:55.637Z,98561.59
2022-08-17T09:34:48.492Z,98557.56
2022-08-17T09:37:25.896Z,98553.75
2022-08-17T09:40:08.180Z,98545.97
2022-08-17T09:43:09.361Z,98541.66
2022-08-17T09:45:53.369Z,98552.78
2022-08-17T09:48:41.864Z,98549.00
2022-08-17T09:51:44.080Z,98550.09
2022-08-17T09:54:39.572Z,98549.28
2022-08-17T09:57:29.763Z,98549.53
2022-08-17T10:00:23.929Z,98546.00
2022-08-17T10:03:20.052Z,98548.16
2022-08-17T10:06:01.653Z,98549.50
2022-08-17T10:08:46.184Z,98552.16
2022-08-17T10:12:17.269Z,98548.34
2022-08-17T10:15:33.081Z,98537.53
2022-08-17T10:18:31.791Z,98537.25
2022-08-17T10:21:25.389Z,98530.75
2022-08-17T10:24:16.533Z,98531.53
2022-08-17T10:26:55.832Z,98528.25
2022-08-17T10:29:28.972Z,98529.28
2022-08-17T10:32:04.313Z,98528.75
2022-08-17T10:34:57.043Z,98534.47
2022-08-17T10:37:46.932Z,98529.66
2022-08-17T10:40:26.469Z,98516.34
2022-08-17T10:43:16.544Z,98523.44
2022-08-17T10:46:30.562Z,98512.84
2022-08-17T10:49:21.273Z,98521.22
2022-08-17T10:51:54.546Z,98520.16
2022-08-17T10:54:35.200Z,98528.84
2022-08-17T10:57:02.309Z,98522.66
2022-08-17T10:59:56.021Z,98529.34
2022-08-17T11:02:27.646Z,98532.06
2022-08-17T11:05:22.461Z,98533.13
2022-08-17T11:08:13.706Z,98545.31
2022-08-17T11:10:54.493Z,98542.88
2022-08-17T11:13:30.305Z,98539.06
2022-08-17T11:16:09.151Z,98545.88
2022-08-17T11:18:47.869Z,98536.38
2022-08-17T11:21:43.323Z,98535.56
2022-08-17T11:24:20.433Z,98528.06
2022-08-17T11:27:12.163Z,98529.41
2022-08-17T11:30:05.561Z,98524.22
2022-08-17T11:32:54.548Z,98528.59
2022-08-17T11:35:22.087Z,98521.69
2022-08-17T11:37:59.220Z,98520.84
2022-08-17T11:40:59.219Z,98524.41
2022-08-17T11:43:49.201Z,98525.25
2022-08-17T11:46:51.947Z,98527.16
2022-08-17T11:50:02.683Z,98525.00
2022-08-17T11:52:40.415Z,98513.66
2022-08-17T11:55:33.919Z,98521.25
2022-08-17T11:58:02.384Z,98515.75
2022-08-17T12:01:07.487Z,98519.06
2022-08-17T12:03:55.465Z,98516.81
2022-08-17T12:06:42.050Z,98516.28
2022-08-17T12:09:22.048Z,98519.81
2022-08-17T12:12:13.389Z,98522.78
2022-08-17T12:17:41.525Z,98522.72
2022-08-17T12:20:21.715Z,98530.06
2022-08-17T12:22:56.712Z,98528.19
2022-08-17T12:25:47.790Z,98539.88
2022-08-17T12:28:33.942Z,98543.19
2022-08-17T12:31:04.983Z,98539.69
2022-08-17T12:33:31.758Z,98533.75
2022-08-17T12:36:03.268Z,98539.69
2022-08-17T12:38:34.741Z,98537.53
2022-08-17T12:41:23.895Z,98549.75
2022-08-17T12:44:03.707Z,98543.78
2022-08-17T12:46:47.406Z,98544.09
2022-08-17T12:49:29.781Z,98540.03
2022-08-17T12:52:13.692Z,98547.31
2022-08-17T12:54:56.462Z,98544.13
2022-08-17T12:57:43.239Z,98550.88
2022-08-17T13:00:12.732Z,98550.03
2022-08-17T13:02:44.626Z,98549.78
2022-08-17T13:05:25.179Z,98552.50
2022-08-17T13:07:53.691Z,98559.81
2022-08-17T13:10:33.376Z,98564.16
2022-08-17T13:13:06.226Z,98550.63
2022-08-17T13:15:37.240Z,98554.69
2022-08-17T13:18:40.263Z,98568.22
2022-08-17T13:21:13.250Z,98564.66
2022-08-17T13:23:39.946Z,98557.13
2022-08-17T13:26:28.375Z,98569.28
2022-08-17T13:28:55.698Z,98564.16
2022-08-17T13:31:52.880Z,98564.72
2022-08-17T13:34:29.766Z,98571.16
2022-08-17T13:37:19.961Z,98575.78
2022-08-17T13:39:50.175Z,98564.13
2022-08-17T13:42:53.165Z,98572.75
2022-08-17T13:45:43.688Z,98576.22
2022-08-17T13:48:17.479Z,98571.31
2022-08-17T13:51:02.900Z,98571.59
2022-08-17T13:53:32.879Z,98574.78
2022-08-17T13:56:37.223Z,98563.41
2022-08-17T13:58:54.452Z,98560.38
2022-08-17T14:02:00.954Z,98551.72
2022-08-17T14:04:29.924Z,98559.03
2022-08-17T14:07:00.568Z,98565.78
2022-08-17T14:09:37.479Z,98571.94
2022-08-17T14:12:10.932Z,98575.69
2022-08-17T14:14:38.883Z,98577.81
2022-08-17T14:17:06.066Z,98584.56
2022-08-17T14:19:36.876Z,98588.63
2022-08-17T14:22:05.112Z,98592.22
2022-08-17T14:24:35.384Z,98594.53
2022-08-17T14:27:04.905Z,98594.84
2022-08-17T14:29:33.680Z,98587.50
2022-08-17T14:32:05.155Z,98587.09
2022-08-17T14:34:31.992Z,98583.22
2022-08-17T14:36:58.917Z,98586.19
2022-08-17T14:39:25.710Z,98587.88
2022-08-17T14:41:53.266Z,98577.84
2022-08-17T14:44:20.480Z,98574.13
2022-08-17T14:46:49.310Z,98564.66
2022-08-17T14:49:16.411Z,98564.72
2022-08-17T14:51:47.243Z,98570.91
2022-08-17T14:54:33.932Z,98585.13
2022-08-17T14:57:22.790Z,98588.13
2022-08-17T14:59:54.760Z,98584.00
2022-08-17T15:02:29.807Z,98580.81
2022-08-17T15:05:02.412Z,98567.91
2022-08-17T15:07:30.255Z,98547.16
2022-08-17T15:09:58.926Z,98533.69
2022-08-17T15:12:32.418Z,98532.31
2022-08-17T15:15:01.211Z,98530.19
2022-08-17T15:17:45.254Z,98533.72
2022-08-17T15:20:20.598Z,98525.19
2022-08-17T15:22:55.766Z,98516.13
2022-08-17T15:25:25.885Z,98513.50
2022-08-17T15:27:53.054Z,98514.31
2022-08-17T15:30:20.577Z,98509.91
2022-08-17T15:32:54.470Z,98498.97
2022-08-17T15:35:28.981Z,98501.78
2022-08-17T15:38:06.199Z,98498.06
2022-08-17T15:40:44.488Z,98507.47
2022-08-17T15:43:14.379Z,98505.59
2022-08-17T15:45:41.856Z,98509.38
2022-08-17T15:48:09.250Z,98503.69
2022-08-17T15:50:36.880Z,98498.94
2022-08-17T15:53:05.227Z,98500.00
2022-08-17T15:55:32.831Z,98503.00
2022-08-17T15:58:00.157Z,98499.50
2022-08-17T16:00:28.829Z,98490.06
2022-08-17T16:03:44.451Z,98493.81
2022-08-17T16:05:44.940Z,98500.56
2022-08-17T16:08:18.463Z,98494.34
2022-08-17T16:10:47.574Z,98491.38
2022-08-17T16:13:17.567Z,98501.63
2022-08-17T16:15:51.081Z,98498.94
2022-08-17T16:18:26.777Z,98490.56
2022-08-17T16:20:53.709Z,98494.09
2022-08-17T16:23:20.778Z,98490.81
2022-08-17T16:25:53.640Z,98485.72
2022-08-17T16:28:22.067Z,98469.75
2022-08-17T16:30:49.028Z,98470.31
2022-08-17T16:33:17.002Z,98467.56
2022-08-17T16:35:44.180Z,98471.84
2022-08-17T16:38:12.641Z,98468.03
2022-08-17T16:40:40.668Z,98467.72
2022-08-17T16:43:10.903Z,98462.88
2022-08-17T16:45:40.956Z,98463.44
2022-08-17T16:48:09.136Z,98465.13
2022-08-17T16:50:36.829Z,98468.38
2022-08-17T16:53:18.044Z,98464.34
2022-08-17T16:55:46.234Z,98463.25
2022-08-17T16:58:14.334Z,98461.66
2022-08-17T17:00:42.891Z,98461.91
2022-08-17T17:03:19.424Z,98464.09
2022-08-17T17:06:07.375Z,98474.88
2022-08-17T17:08:47.015Z,98469.75
2022-08-17T17:11:38.072Z,98471.09
2022-08-17T17:14:08.934Z,98472.44
2022-08-17T17:16:53.631Z,98476.50
2022-08-17T17:19:38.069Z,98477.56
2022-08-17T17:22:15.409Z,98472.63
2022-08-17T17:24:56.589Z,98467.22
2022-08-17T17:27:47.508Z,98465.59
2022-08-17T17:30:21.554Z,98465.06
2022-08-17T17:33:11.652Z,98468.56
2022-08-17T17:35:54.511Z,98474.75
2022-08-17T17:38:29.128Z,98469.09
2022-08-17T17:41:12.364Z,98483.13
2022-08-17T17:43:40.902Z,98480.41
2022-08-17T17:46:27.140Z,98487.94
2022-08-17T17:48:56.918Z,98484.16
2022-08-17T17:52:02.894Z,98494.13
2022-08-17T17:54:39.203Z,98495.75
2022-08-17T17:57:26.024Z,98494.91
2022-08-17T18:00:09.083Z,98497.31
2022-08-17T18:03:22.142Z,98496.72
2022-08-17T18:06:18.758Z,98490.75
2022-08-17T18:09:34.108Z,98495.28
2022-08-17T18:12:34.787Z,98498.22
2022-08-17T18:15:22.827Z,98494.69
2022-08-17T18:18:23.393Z,98494.91
2022-08-17T18:20:56.215Z,98490.75
2022-08-17T18:23:27.907Z,98493.34
2022-08-17T18:25:56.293Z,98483.06
2022-08-17T18:28:33.651Z,98481.91
2022-08-17T18:31:17.220Z,98490.19
2022-08-17T18:33:46.732Z,98495.47
2022-08-17T18:36:30.042Z,98489.16
2022-08-17T18:39:16.751Z,98490.91
2022-08-17T18:41:46.643Z,98490.25
2022-08-17T18:44:39.561Z,98485.22
2022-08-17T18:47:14.081Z,98480.03
2022-08-17T18:49:43.191Z,98479.13
2022-08-17T18:52:31.083Z,98477.38
2022-08-17T18:55:20.925Z,98483.59
2022-08-17T18:57:57.090Z,98486.47
2022-08-17T19:00:40.578Z,98482.44
2022-08-17T19:03:19.584Z,98493.13
2022-08-17T19:05:50.530Z,98482.25
2022-08-17T19:08:34.785Z,98486.41
2022-08-17T19:11:05.272Z,98490.31
2022-08-17T19:13:36.237Z,98489.84
2022-08-17T19:16:56.177Z,98493.19
2022-08-17T19:19:28.032Z,98490.81
2022-08-17T19:21:59.245Z,98504.81
2022-08-17T19:24:28.664Z,98509.19
2022-08-17T19:27:34.897Z,98499.69
2022-08-17T19:30:13.093Z,98503.81
2022-08-17T19:32:40.976Z,98494.72
2022-08-17T19:35:17.362Z,98499.78
2022-08-17T19:38:22.969Z,98515.63
2022-08-17T19:41:04.235Z,98510.25
2022-08-17T19:43:50.059Z,98516.19
2022-08-17T19:46:50.555Z,98517.38
2022-08-17T19:49:32.917Z,98519.38
2022-08-17T19:52:16.666Z,98515.06
2022-08-17T19:54:56.918Z,98522.66
2022-08-17T19:58:07.489Z,98508.81
2022-08-17T20:00:39.514Z,98529.66
2022-08-17T20:03:18.052Z,98526.63
2022-08-17T20:06:12.181Z,98525.13
2022-08-17T20:09:07.253Z,98527.06
2022-08-17T20:11:43.900Z,98521.63
2022-08-17T20:14:22.649Z,98519.84
2022-08-17T20:16:49.701Z,98529.03
2022-08-17T20:19:41.240Z,98520.91
2022-08-17T20:22:14.827Z,98523.06
2022-08-17T20:25:10.015Z,98536.59
2022-08-17T20:27:51.465Z,98531.09
2022-08-17T20:30:44.533Z,98531.75
2022-08-17T20:33:33.179Z,98526.19
2022-08-17T20:36:14.813Z,98532.59
2022-08-17T20:38:45.662Z,98520.84
2022-08-17T20:41:15.758Z,98522.94
2022-08-17T20:43:51.238Z,98515.41
2022-08-17T20:46:29.505Z,98513.19
2022-08-17T20:49:16.656Z,98521.53
2022-08-17T20:52:02.529Z,98523.00
2022-08-17T20:54:43.876Z,98527.25
2022-08-17T20:57:33.335Z,98532.09
2022-08-17T21:00:15.724Z,98531.44
2022-08-17T21:02:50.699Z,98521.59
2022-08-17T21:05:34.283Z,98521.91
2022-08-17T21:08:54.219Z,98521.03
2022-08-17T21:12:03.898Z,98520.63
2022-08-17T21:14:42.106Z,98520.91
2022-08-17T21:17:47.580Z,98520.47
2022-08-17T21:20:50.144Z,98529.66
2022-08-17T21:24:03.131Z,98529.19
2022-08-17T21:26:50.590Z,98532.81
2022-08-17T21:29:29.749Z,98538.50
2022-08-17T21:32:28.507Z,98548.47
2022-08-17T21:35:28.623Z,98556.41
2022-08-17T21:38:05.144Z,98559.47
2022-08-17T21:40:34.221Z,98564.56
2022-08-17T21:43:05.897Z,98573.09
2022-08-17T21:45:35.737Z,98566.50
2022-08-17T21:48:18.300Z,98566.53
2022-08-17T21:50:55.868Z,98575.63
2022-08-17T21:53:30.655Z,98577.81
2022-08-17T21:55:59.847Z,98579.38
2022-08-17T21:58:40.206Z,98582.34
2022-08-17T22:01:11.587Z,98592.81
2022-08-17T22:03:39.071Z,98590.16
2022-08-17T22:06:24.513Z,98587.31
2022-08-17T22:09:22.270Z,98579.78
2022-08-17T22:11:53.826Z,98582.84
2022-08-17T22:14:51.501Z,98582.44
2022-08-17T22:17:35.794Z,98581.63
2022-08-17T22:20:10.012Z,98586.97
2022-08-17T22:23:28.102Z,98586.00
2022-08-17T22:26:02.816Z,98589.25
2022-08-17T22:28:40.524Z,98589.47
2022-08-17T22:31:09.838Z,98589.50
2022-08-17T22:33:53.007Z,98585.00
2022-08-17T22:37:13.853Z,98583.56
2022-08-17T22:39:41.392Z,98589.97
2022-08-17T22:42:14.579Z,98592.88
2022-08-17T22:44:49.763Z,98593.69
2022-08-17T22:47:24.539Z,98595.31
2022-08-17T22:50:03.992Z,98588.78
2022-08-17T22:53:02.349Z,98599.84
2022-08-17T22:55:51.799Z,98589.00
2022-08-17T22:58:40.821Z,98586.09
2022-08-17T23:01:43.266Z,98588.56
2022-08-17T23:04:13.056Z,98599.66
2022-08-17T23:06:42.621Z,98598.41
2022-08-17T23:09:09.784Z,98603.50
2022-08-17T23:11:48.795Z,98598.81
2022-08-17T23:14:18.548Z,98606.81
2022-08-17T23:16:45.512Z,98593.69
2022-08-17T23:19:15.549Z,98593.50
2022-08-17T23:21:45.166Z,98589.00
2022-08-17T23:24:23.059Z,98571.16
2022-08-17T23:26:50.403Z,98579.34
2022-08-17T23:29:17.536Z,98578.56
2022-08-17T23:31:44.312Z,98574.88
2022-08-17T23:34:14.793Z,98579.78
2022-08-17T23:36:41.598Z,98580.16
2022-08-17T23:39:08.666Z,98573.44
2022-08-17T23:41:38.037Z,98562.56
2022-08-17T23:44:06.956Z,98561.94
2022-08-17T23:46:34.805Z,98562.78
2022-08-17T23:49:02.009Z,98566.25
2022-08-17T23:51:34.831Z,98582.41
2022-08-17T23:54:08.360Z,98578.75
2022-08-17T23:56:39.520Z,98576.25
2022-08-17T23:59:06.311Z,98577.69
